Time;durP1;ratioP1;P1;durP2;ratioP2;P2;SDS_P1;SDS_P2;PMS_P1;PMS_P2;Temp;Humidity;BMP_temperature;BMP_pressure;BME280_temperature;BME280_humidity;BME280_pressure;Samples;Min_cycle;Max_cycle;Signal;HPM_P1;HPM_P2
2023/09/04 00:00:56;;;;;;;0.00;0.00;;;17.10;99.90;;;;;;5059357;28;20032;-79
2023/09/04 00:03:22;;;;;;;0.10;0.10;;;17.00;99.90;;;;;;5059185;28;20036;-77
2023/09/04 00:05:48;;;;;;;0.00;0.00;;;17.00;99.90;;;;;;5059253;28;20048;-76
2023/09/04 00:08:15;;;;;;;0.00;0.00;;;16.90;99.90;;;;;;5059317;28;20518;-76
2023/09/04 00:10:40;;;;;;;0.00;0.00;;;16.90;99.90;;;;;;5059084;28;20032;-77
2023/09/04 00:13:06;;;;;;;0.00;0.00;;;16.90;99.90;;;;;;5059548;28;20082;-76
2023/09/04 00:15:32;;;;;;;0.52;0.52;;;16.90;99.90;;;;;;5059672;28;20020;-77
2023/09/04 00:17:57;;;;;;;0.00;0.00;;;16.90;99.90;;;;;;5059216;28;20016;-77
2023/09/04 00:20:24;;;;;;;0.00;0.00;;;16.90;99.90;;;;;;5059386;28;20107;-76
2023/09/04 00:22:50;;;;;;;0.00;0.00;;;16.90;99.90;;;;;;5059305;28;20085;-76
2023/09/04 00:25:16;;;;;;;0.08;0.08;;;16.90;99.90;;;;;;5059372;28;20310;-76
2023/09/04 00:27:44;;;;;;;1.10;1.10;;;16.90;99.90;;;;;;5058056;28;20044;-76
2023/09/04 00:30:11;;;;;;;0.20;0.20;;;16.90;99.90;;;;;;5059417;28;20217;-76
2023/09/04 00:32:38;;;;;;;0.20;0.20;;;16.90;99.90;;;;;;5059290;28;20027;-76
2023/09/04 00:35:04;;;;;;;0.15;0.15;;;16.80;99.90;;;;;;5059152;28;20560;-77
2023/09/04 00:37:30;;;;;;;0.10;0.10;;;18.30;99.90;;;;;;5059312;28;20094;-76
2023/09/04 00:39:56;;;;;;;0.00;0.00;;;16.30;99.90;;;;;;5059294;28;20506;-76
2023/09/04 00:42:22;;;;;;;0.20;0.17;;;16.70;99.90;;;;;;5040818;28;20409;-77
2023/09/04 00:44:50;;;;;;;0.43;0.43;;;16.70;99.90;;;;;;5041348;28;20410;-76
2023/09/04 00:47:18;;;;;;;0.00;0.00;;;16.60;99.90;;;;;;5058931;28;20016;-77
2023/09/04 00:49:46;;;;;;;0.00;0.00;;;16.60;99.90;;;;;;5058642;28;20036;-76
2023/09/04 00:52:12;;;;;;;0.10;0.10;;;16.50;99.90;;;;;;5058620;28;20709;-76
2023/09/04 00:54:40;;;;;;;0.30;0.30;;;16.50;99.90;;;;;;5058759;28;20231;-76
2023/09/04 00:57:05;;;;;;;0.22;0.22;;;16.50;99.90;;;;;;5058518;28;20367;-76
2023/09/04 00:59:32;;;;;;;0.85;0.85;;;16.50;99.90;;;;;;5058481;28;20020;-81
2023/09/04 01:02:00;;;;;;;2.47;2.28;;;16.40;99.90;;;;;;5035651;28;20032;-76
2023/09/04 01:04:26;;;;;;;0.30;0.30;;;16.40;99.90;;;;;;5038372;28;20412;-78
2023/09/04 01:06:53;;;;;;;4.70;1.55;;;16.40;99.90;;;;;;5038527;28;20044;-76
2023/09/04 01:09:20;;;;;;;3.65;3.45;;;16.40;99.90;;;;;;5038188;28;20029;-77
2023/09/04 01:12:01;;;;;;;1.20;1.20;;;16.20;99.90;;;;;;5038179;28;20020;-77
2023/09/04 01:14:29;;;;;;;0.20;0.20;;;16.20;99.90;;;;;;5038155;28;20033;-76
2023/09/04 01:16:55;;;;;;;1.75;1.65;;;16.20;99.90;;;;;;5032643;28;20512;-75
2023/09/04 01:19:21;;;;;;;0.63;0.63;;;16.20;99.90;;;;;;5039685;28;20533;-78
2023/09/04 01:21:47;;;;;;;2.92;2.75;;;16.30;99.90;;;;;;5057957;28;20103;-75
2023/09/04 01:24:13;;;;;;;11.10;4.68;;;16.30;99.90;;;;;;5057940;28;20109;-79
2023/09/04 01:27:05;;;;;;;0.00;0.00;;;16.30;99.90;;;;;;5036661;28;20470;-76
2023/09/04 01:29:50;;;;;;;0.25;0.25;;;16.30;99.90;;;;;;5038319;28;20203;-77
2023/09/04 01:32:41;;;;;;;0.00;0.00;;;16.30;99.90;;;;;;5037993;28;20104;-76
2023/09/04 01:35:09;;;;;;;0.00;0.00;;;16.30;99.90;;;;;;5037767;28;20280;-79
2023/09/04 01:37:37;;;;;;;0.10;0.10;;;16.30;99.90;;;;;;5038627;28;20333;-76
2023/09/04 01:40:04;;;;;;;0.25;0.25;;;16.30;99.90;;;;;;5037848;28;20017;-76
2023/09/04 01:42:30;;;;;;;0.15;0.15;;;16.30;99.90;;;;;;5038220;28;20021;-76
2023/09/04 01:44:57;;;;;;;0.10;0.10;;;16.30;99.90;;;;;;5037940;28;20009;-76
2023/09/04 01:47:22;;;;;;;0.00;0.00;;;16.30;99.90;;;;;;5036361;28;20035;-76
2023/09/04 01:49:49;;;;;;;4.75;3.83;;;16.20;99.90;;;;;;5037733;28;20025;-76
2023/09/04 01:52:15;;;;;;;0.00;0.00;;;15.00;99.90;;;;;;5036190;28;20039;-76
2023/09/04 01:54:40;;;;;;;0.10;0.10;;;16.20;99.90;;;;;;5037673;28;20029;-75
2023/09/04 01:57:06;;;;;;;0.10;0.10;;;16.20;99.90;;;;;;5038672;28;20021;-76
2023/09/04 01:59:35;;;;;;;0.00;0.00;;;16.10;99.90;;;;;;5037756;28;20290;-75
2023/09/04 02:02:01;;;;;;;0.10;0.10;;;16.10;99.90;;;;;;5037206;28;20499;-78
2023/09/04 02:04:31;;;;;;;0.00;0.00;;;16.10;99.90;;;;;;5037203;28;20040;-78
2023/09/04 02:06:59;;;;;;;0.10;0.10;;;16.00;99.90;;;;;;5035946;28;20399;-78
2023/09/04 02:09:25;;;;;;;0.10;0.10;;;16.00;99.90;;;;;;5037240;28;20131;-78
2023/09/04 02:11:51;;;;;;;0.20;0.20;;;16.00;99.90;;;;;;5037127;28;20067;-78
2023/09/04 02:14:17;;;;;;;0.00;0.00;;;15.90;99.90;;;;;;5037202;28;20027;-78
2023/09/04 02:16:43;;;;;;;0.80;0.80;;;15.90;99.90;;;;;;5037242;28;20017;-78
2023/09/04 02:19:09;;;;;;;0.10;0.10;;;15.80;99.90;;;;;;5037174;28;20506;-78
2023/09/04 02:21:37;;;;;;;0.05;0.05;;;15.90;99.90;;;;;;5037606;28;20021;-79
2023/09/04 02:24:03;;;;;;;0.00;0.00;;;15.90;99.90;;;;;;5037593;28;20106;-78
2023/09/04 02:26:29;;;;;;;0.08;0.08;;;15.80;99.90;;;;;;5045452;28;20476;-78
2023/09/04 02:28:54;;;;;;;3.38;1.95;;;15.80;99.90;;;;;;5057380;28;20060;-82
2023/09/04 02:31:23;;;;;;;0.10;0.10;;;;;;;;;;5039485;28;20087;-82
2023/09/04 02:33:50;;;;;;;0.00;0.00;;;15.80;99.90;;;;;;5057111;28;20365;-79
2023/09/04 02:36:16;;;;;;;0.20;0.20;;;14.10;99.90;;;;;;5040492;28;20043;-78
2023/09/04 02:38:42;;;;;;;0.15;0.15;;;;;;;;;;5057255;28;20028;-78
2023/09/04 02:41:08;;;;;;;1.20;1.20;;;15.80;99.90;;;;;;5039103;28;20120;-89
2023/09/04 02:43:34;;;;;;;0.10;0.10;;;16.10;99.90;;;;;;5057217;28;20072;-76
2023/09/04 02:46:00;;;;;;;0.10;0.10;;;;;;;;;;5057041;28;20506;-76
2023/09/04 02:48:26;;;;;;;0.40;0.40;;;15.90;99.90;;;;;;5038891;28;20356;-77
2023/09/04 02:50:59;;;;;;;1.40;0.68;;;15.90;99.90;;;;;;5039210;28;20638;-76
2023/09/04 02:53:28;;;;;;;0.03;0.03;;;15.80;99.90;;;;;;5039102;28;20222;-76
2023/09/04 02:55:54;;;;;;;0.35;0.35;;;15.80;99.90;;;;;;5056648;28;20031;-77
2023/09/04 02:58:21;;;;;;;0.08;0.08;;;13.50;99.90;;;;;;5072175;28;20025;-76
2023/09/04 03:00:47;;;;;;;0.25;0.25;;;15.40;99.90;;;;;;5057033;28;20401;-76
2023/09/04 03:03:13;;;;;;;0.10;0.10;;;15.40;99.90;;;;;;5056498;28;20566;-76
2023/09/04 03:05:39;;;;;;;0.52;0.52;;;15.80;99.90;;;;;;5071931;28;20243;-76
2023/09/04 03:08:05;;;;;;;0.00;0.00;;;15.80;99.90;;;;;;5056494;28;20109;-81
2023/09/04 03:10:31;;;;;;;0.10;0.10;;;15.80;99.90;;;;;;5071716;28;20111;-76
2023/09/04 03:12:57;;;;;;;0.05;0.05;;;15.80;99.90;;;;;;5071817;28;20059;-76
2023/09/04 03:15:22;;;;;;;0.00;0.00;;;15.80;99.90;;;;;;5038475;28;20048;-76
2023/09/04 03:17:48;;;;;;;0.10;0.10;;;15.80;99.90;;;;;;5056332;28;20020;-76
2023/09/04 03:20:19;;;;;;;0.10;0.10;;;15.80;99.90;;;;;;5071975;28;20363;-76
2023/09/04 03:22:45;;;;;;;0.10;0.10;;;12.90;99.90;;;;;;5071941;28;20013;-76
2023/09/04 03:25:11;;;;;;;0.20;0.20;;;15.80;99.90;;;;;;5038265;28;20043;-76
2023/09/04 03:27:37;;;;;;;0.20;0.20;;;15.80;99.90;;;;;;5038171;28;20048;-78
2023/09/04 03:30:04;;;;;;;0.00;0.00;;;16.10;99.90;;;;;;5056982;28;20099;-76
2023/09/04 03:32:29;;;;;;;0.00;0.00;;;15.60;99.90;;;;;;5048173;28;20301;-76
2023/09/04 03:34:55;;;;;;;0.10;0.10;;;15.50;99.90;;;;;;5056930;28;20336;-77
2023/09/04 03:37:21;;;;;;;0.00;0.00;;;14.90;99.90;;;;;;5056583;28;20531;-76
2023/09/04 03:39:47;;;;;;;0.00;0.00;;;15.50;99.90;;;;;;5071646;28;20402;-76
2023/09/04 03:42:12;;;;;;;0.10;0.10;;;15.50;99.90;;;;;;5071555;28;20461;-76
2023/09/04 03:44:38;;;;;;;2.90;2.72;;;15.50;99.90;;;;;;5071955;28;20100;-76
2023/09/04 03:47:04;;;;;;;0.00;0.00;;;15.60;99.90;;;;;;5071614;28;20512;-78
2023/09/04 03:49:30;;;;;;;0.00;0.00;;;15.60;99.90;;;;;;5071849;28;20756;-77
2023/09/04 03:51:56;;;;;;;0.08;0.08;;;15.60;99.90;;;;;;5071636;28;20029;-76
2023/09/04 03:54:22;;;;;;;0.10;0.10;;;15.60;99.90;;;;;;5056194;28;20024;-77
2023/09/04 03:56:49;;;;;;;0.00;0.00;;;15.50;99.90;;;;;;5071372;28;20052;-81
2023/09/04 03:59:15;;;;;;;0.25;0.25;;;15.50;99.90;;;;;;5055918;28;20492;-76
2023/09/04 04:01:40;;;;;;;0.47;0.47;;;15.50;99.90;;;;;;5053735;28;20099;-77
2023/09/04 04:04:11;;;;;;;0.10;0.10;;;15.50;99.90;;;;;;5037211;28;20377;-76
2023/09/04 04:06:36;;;;;;;0.10;0.10;;;15.60;99.90;;;;;;5057802;28;20028;-80
2023/09/04 04:09:03;;;;;;;0.00;0.00;;;15.60;99.90;;;;;;5059538;28;20036;-81
2023/09/04 04:11:29;;;;;;;0.17;0.17;;;15.50;99.90;;;;;;5041416;28;20048;-77
2023/09/04 04:14:03;;;;;;;0.30;0.30;;;15.60;99.90;;;;;;5059945;28;20055;-87
2023/09/04 04:16:32;;;;;;;0.17;0.17;;;15.60;99.90;;;;;;5041317;28;20221;-76
2023/09/04 04:18:58;;;;;;;0.10;0.10;;;12.40;99.90;;;;;;5059164;28;20016;-77
2023/09/04 04:21:24;;;;;;;0.00;0.00;;;15.60;99.90;;;;;;5074771;28;20111;-76
2023/09/04 04:23:49;;;;;;;0.10;0.10;;;15.60;99.90;;;;;;5059244;28;20437;-77
2023/09/04 04:26:15;;;;;;;0.10;0.10;;;15.60;99.90;;;;;;5074175;28;20724;-82
2023/09/04 04:28:41;;;;;;;0.10;0.10;;;15.60;99.90;;;;;;5074232;28;20041;-77
2023/09/04 04:31:07;;;;;;;0.20;0.20;;;15.60;99.90;;;;;;5059124;28;20021;-76
2023/09/04 04:33:32;;;;;;;0.32;0.32;;;15.60;99.90;;;;;;5040915;28;20110;-76
2023/09/04 04:35:58;;;;;;;0.10;0.10;;;;;;;;;;5058688;28;20036;-77
2023/09/04 04:38:24;;;;;;;0.00;0.00;;;15.70;99.90;;;;;;5040982;28;20437;-77
2023/09/04 04:40:50;;;;;;;3.33;3.10;;;;;;;;;;5059077;28;20552;-76
2023/09/04 04:43:16;;;;;;;2.20;2.08;;;15.60;99.90;;;;;;5041015;28;20497;-79
2023/09/04 04:45:43;;;;;;;0.00;0.00;;;15.50;99.90;;;;;;5074299;28;20025;-76
2023/09/04 04:48:09;;;;;;;0.40;0.40;;;15.60;99.90;;;;;;5059281;28;20107;-76
2023/09/04 04:50:34;;;;;;;0.38;0.38;;;15.60;99.90;;;;;;5059132;28;20387;-76
2023/09/04 04:53:00;;;;;;;1.45;1.38;;;15.60;99.90;;;;;;5074304;28;20337;-76
2023/09/04 04:55:26;;;;;;;0.55;0.55;;;15.60;99.90;;;;;;5074216;28;20032;-76
2023/09/04 04:57:53;;;;;;;0.00;0.00;;;15.60;99.90;;;;;;5074101;28;20661;-78
2023/09/04 05:00:18;;;;;;;0.40;0.40;;;15.20;99.90;;;;;;5059062;28;20468;-76
2023/09/04 05:02:44;;;;;;;0.20;0.20;;;15.70;99.90;;;;;;5065576;28;20040;-76
2023/09/04 05:05:10;;;;;;;0.10;0.10;;;15.70;99.90;;;;;;5073812;28;20059;-76
2023/09/04 05:07:37;;;;;;;0.10;0.10;;;15.70;99.90;;;;;;5073297;28;20044;-83
2023/09/04 05:10:03;;;;;;;0.10;0.10;;;15.70;99.90;;;;;;5040787;28;20048;-78
2023/09/04 05:12:29;;;;;;;0.20;0.20;;;15.70;99.90;;;;;;5058322;28;20333;-76
2023/09/04 05:14:55;;;;;;;0.00;0.00;;;15.70;99.90;;;;;;5073567;28;20021;-79
2023/09/04 05:17:20;;;;;;;0.10;0.10;;;15.70;99.90;;;;;;5040487;28;20021;-78
2023/09/04 05:19:47;;;;;;;0.10;0.10;;;;;;;;;;5074305;28;20726;-77
2023/09/04 05:22:13;;;;;;;0.00;0.00;;;15.70;99.90;;;;;;5058895;28;20399;-79
2023/09/04 05:24:38;;;;;;;0.00;0.00;;;15.80;99.90;;;;;;5058712;28;20108;-78
2023/09/04 05:27:04;;;;;;;0.40;0.40;;;15.80;99.90;;;;;;5058083;28;20348;-77
2023/09/04 05:29:30;;;;;;;0.32;0.32;;;15.80;99.90;;;;;;5058589;28;20039;-76
2023/09/04 05:31:57;;;;;;;0.00;0.00;;;15.90;99.90;;;;;;5068398;28;20037;-76
2023/09/04 05:34:23;;;;;;;0.10;0.10;;;16.00;99.90;;;;;;5054456;28;20441;-77
2023/09/04 05:36:49;;;;;;;0.55;0.38;;;16.10;99.90;;;;;;5057645;28;20025;-76
2023/09/04 05:39:14;;;;;;;0.00;0.00;;;17.20;99.90;;;;;;5057716;28;20025;-76
2023/09/04 05:41:40;;;;;;;0.47;0.40;;;16.20;99.90;;;;;;5057271;28;20023;-76
2023/09/04 05:44:06;;;;;;;0.10;0.10;;;;;;;;;;5057439;28;20033;-77
2023/09/04 05:46:33;;;;;;;0.00;0.00;;;16.20;99.90;;;;;;5057455;28;20095;-76
2023/09/04 05:48:58;;;;;;;0.00;0.00;;;16.30;99.90;;;;;;5039385;28;20036;-76
2023/09/04 05:51:25;;;;;;;0.00;0.00;;;16.40;99.90;;;;;;5057549;28;20466;-80
2023/09/04 05:53:51;;;;;;;0.08;0.08;;;13.70;99.90;;;;;;5057557;28;20284;-78
2023/09/04 05:56:17;;;;;;;0.20;0.20;;;16.60;99.90;;;;;;5057346;28;20418;-78
2023/09/04 05:58:44;;;;;;;0.32;0.32;;;12.90;99.90;;;;;;5039515;28;20024;-78
2023/09/04 06:01:10;;;;;;;0.10;0.10;;;16.70;99.90;;;;;;5039614;28;20025;-79
2023/09/04 06:03:35;;;;;;;1.30;1.20;;;16.80;99.90;;;;;;5057296;28;20029;-79
2023/09/04 06:06:02;;;;;;;0.30;0.30;;;16.70;99.90;;;;;;5058280;28;20124;-79
2023/09/04 06:08:30;;;;;;;0.10;0.10;;;16.70;99.90;;;;;;5057152;28;20039;-78
2023/09/04 06:10:56;;;;;;;0.10;0.10;;;17.10;99.90;;;;;;5039857;28;20390;-78
2023/09/04 06:13:22;;;;;;;0.05;0.05;;;16.70;99.90;;;;;;5058061;28;20024;-76
2023/09/04 06:15:51;;;;;;;0.40;0.38;;;15.70;99.90;;;;;;5072022;28;20079;-78
2023/09/04 06:18:19;;;;;;;0.30;0.30;;;16.80;99.90;;;;;;5057050;28;20024;-78
2023/09/04 06:20:45;;;;;;;0.85;0.85;;;16.80;99.90;;;;;;5038778;28;20233;-78
2023/09/04 06:23:11;;;;;;;0.10;0.10;;;16.80;99.90;;;;;;5056930;28;20039;-79
2023/09/04 06:25:42;;;;;;;2.35;1.95;;;16.90;99.90;;;;;;5071456;28;20021;-76
2023/09/04 06:28:10;;;;;;;0.10;0.10;;;16.90;99.90;;;;;;5036401;28;20033;-78
2023/09/04 06:30:36;;;;;;;0.00;0.00;;;17.00;99.90;;;;;;5018711;28;20033;-78
2023/09/04 06:33:03;;;;;;;0.15;0.15;;;17.00;99.90;;;;;;5010236;28;20029;-80
2023/09/04 06:35:29;;;;;;;0.00;0.00;;;17.00;99.90;;;;;;5018937;28;20029;-82
2023/09/04 06:37:55;;;;;;;0.32;0.32;;;16.90;99.90;;;;;;5036819;28;20021;-78
2023/09/04 06:40:22;;;;;;;0.10;0.10;;;16.90;99.90;;;;;;5018903;28;20079;-78
2023/09/04 06:42:47;;;;;;;0.10;0.10;;;16.80;99.90;;;;;;5018906;28;20025;-80
2023/09/04 06:45:13;;;;;;;0.00;0.00;;;16.90;99.90;;;;;;5036690;28;20029;-79
2023/09/04 06:47:41;;;;;;;0.00;0.00;;;16.90;99.90;;;;;;5036943;28;20026;-77
2023/09/04 06:50:08;;;;;;;0.03;0.03;;;16.90;99.90;;;;;;5036261;28;20226;-78
2023/09/04 06:52:35;;;;;;;0.00;0.00;;;16.90;99.90;;;;;;5036342;28;20014;-78
2023/09/04 06:55:01;;;;;;;0.43;0.43;;;17.00;99.90;;;;;;5036602;28;20025;-78
2023/09/04 06:57:27;;;;;;;0.00;0.00;;;17.00;99.90;;;;;;5036407;28;20387;-79
2023/09/04 06:59:54;;;;;;;0.10;0.10;;;17.90;99.90;;;;;;5036741;28;20025;-78
2023/09/04 07:02:20;;;;;;;0.10;0.10;;;17.00;99.90;;;;;;5018606;28;20305;-81
2023/09/04 07:04:46;;;;;;;0.00;0.00;;;17.10;99.90;;;;;;5018649;28;20357;-78
2023/09/04 07:07:12;;;;;;;0.10;0.10;;;17.10;99.90;;;;;;5036329;28;20291;-79
2023/09/04 07:09:37;;;;;;;0.00;0.00;;;17.20;99.90;;;;;;5036322;28;20104;-83
2023/09/04 07:12:05;;;;;;;0.00;0.00;;;17.20;99.90;;;;;;5037017;28;20052;-81
2023/09/04 07:14:32;;;;;;;0.10;0.10;;;17.30;99.90;;;;;;5036502;28;20673;-78
2023/09/04 07:16:58;;;;;;;0.10;0.10;;;17.30;99.90;;;;;;5036345;28;20167;-77
2023/09/04 07:19:24;;;;;;;0.50;0.50;;;17.40;99.90;;;;;;5036675;28;20083;-81
2023/09/04 07:21:50;;;;;;;0.45;0.45;;;17.50;99.90;;;;;;5036338;28;20611;-78
2023/09/04 07:24:16;;;;;;;0.75;0.75;;;17.60;99.90;;;;;;5036202;28;20017;-78
2023/09/04 07:26:42;;;;;;;0.00;0.00;;;17.60;99.90;;;;;;5045045;28;20464;-77
2023/09/04 07:29:08;;;;;;;0.13;0.13;;;17.60;99.90;;;;;;5038086;28;20521;-75
2023/09/04 07:31:34;;;;;;;0.15;0.15;;;17.70;99.90;;;;;;5056160;28;20363;-78
2023/09/04 07:34:01;;;;;;;0.10;0.10;;;17.60;99.90;;;;;;5055903;28;20039;-80
2023/09/04 07:36:27;;;;;;;0.20;0.20;;;17.70;99.90;;;;;;5056131;28;20017;-77
2023/09/04 07:38:52;;;;;;;0.00;0.00;;;17.80;99.90;;;;;;5060406;28;20508;-78
2023/09/04 07:41:18;;;;;;;0.10;0.10;;;17.90;99.90;;;;;;5042387;28;20078;-78
2023/09/04 07:43:44;;;;;;;0.10;0.10;;;17.70;99.90;;;;;;5060330;28;20024;-77
2023/09/04 07:46:10;;;;;;;0.25;0.25;;;17.90;99.90;;;;;;5059771;28;20024;-78
2023/09/04 07:48:35;;;;;;;0.52;0.52;;;18.00;99.90;;;;;;5075056;28;20344;-77
2023/09/04 07:51:04;;;;;;;0.10;0.10;;;18.00;99.90;;;;;;5075452;28;20025;-79
2023/09/04 07:53:30;;;;;;;2.15;2.10;;;18.20;99.90;;;;;;5059867;28;20589;-76
2023/09/04 07:55:55;;;;;;;0.10;0.10;;;18.50;99.90;;;;;;5060185;28;20024;-78
2023/09/04 07:58:21;;;;;;;0.10;0.10;;;18.70;99.90;;;;;;5059392;28;20102;-77
2023/09/04 08:00:49;;;;;;;1.00;1.00;;;18.90;99.90;;;;;;5059438;28;20017;-77
2023/09/04 08:03:15;;;;;;;0.10;0.10;;;18.90;99.90;;;;;;5059316;28;20024;-77
2023/09/04 08:05:41;;;;;;;2.20;1.25;;;19.00;99.90;;;;;;5041588;28;20032;-78
2023/09/04 08:08:09;;;;;;;0.10;0.10;;;19.00;99.90;;;;;;5059438;28;20047;-78
2023/09/04 08:10:49;;;;;;;0.28;0.28;;;19.00;99.90;;;;;;5059315;28;20556;-78
2023/09/04 08:13:18;;;;;;;0.10;0.10;;;19.00;99.90;;;;;;5058988;28;20028;-78
2023/09/04 08:15:44;;;;;;;0.10;0.10;;;19.10;99.90;;;;;;5058960;28;20312;-80
2023/09/04 08:18:10;;;;;;;0.00;0.00;;;19.20;99.90;;;;;;5059136;28;20012;-77
2023/09/04 08:20:37;;;;;;;0.00;0.00;;;;;;;;;;5059348;28;20313;-78
2023/09/04 08:23:04;;;;;;;0.20;0.20;;;19.20;99.90;;;;;;5059661;28;20295;-77
2023/09/04 08:25:30;;;;;;;0.25;0.25;;;19.10;99.90;;;;;;5059310;28;20023;-78
2023/09/04 08:27:56;;;;;;;0.00;0.00;;;19.20;99.90;;;;;;5059267;28;20040;-78
2023/09/04 08:30:21;;;;;;;0.10;0.10;;;19.20;99.90;;;;;;5059446;28;20020;-78
2023/09/04 08:32:47;;;;;;;6.93;1.20;;;19.00;99.90;;;;;;5024946;28;20058;-79
2023/09/04 08:35:13;;;;;;;0.00;0.00;;;18.90;99.90;;;;;;5059184;28;20060;-78
2023/09/04 08:37:39;;;;;;;0.00;0.00;;;18.80;99.90;;;;;;5059090;28;20032;-77
2023/09/04 08:40:06;;;;;;;0.00;0.00;;;18.80;99.90;;;;;;5059447;28;20329;-77
2023/09/04 08:42:32;;;;;;;0.05;0.05;;;18.70;99.90;;;;;;5058970;28;20251;-76
2023/09/04 08:44:59;;;;;;;0.00;0.00;;;18.70;99.90;;;;;;5058784;28;20021;-76
2023/09/04 08:47:25;;;;;;;0.10;0.10;;;18.80;99.90;;;;;;5059001;28;20116;-78
2023/09/04 08:49:54;;;;;;;0.20;0.20;;;18.80;99.90;;;;;;5040227;28;20028;-77
2023/09/04 08:52:25;;;;;;;0.35;0.35;;;18.90;99.90;;;;;;5059221;28;20522;-77
2023/09/04 08:54:50;;;;;;;0.32;0.32;;;19.00;99.90;;;;;;5059367;28;20041;-76
2023/09/04 08:57:20;;;;;;;0.00;0.00;;;17.70;99.90;;;;;;5074862;28;20214;-78
2023/09/04 08:59:46;;;;;;;0.00;0.00;;;19.10;99.90;;;;;;5059496;28;20040;-76
2023/09/04 09:02:15;;;;;;;0.00;0.00;;;19.20;99.90;;;;;;5041176;28;20025;-79
2023/09/04 09:04:41;;;;;;;0.10;0.10;;;19.60;99.90;;;;;;5041396;28;20044;-78
2023/09/04 09:07:10;;;;;;;0.00;0.00;;;19.60;99.90;;;;;;5059367;28;20304;-78
2023/09/04 09:09:49;;;;;;;0.08;0.08;;;19.70;99.90;;;;;;5060283;28;20021;-79
2023/09/04 09:12:15;;;;;;;0.10;0.10;;;19.80;98.90;;;;;;5060616;28;20048;-78
2023/09/04 09:14:41;;;;;;;0.10;0.10;;;19.80;99.00;;;;;;5041901;28;20055;-78
2023/09/04 09:17:10;;;;;;;0.03;0.03;;;19.70;99.30;;;;;;5059108;28;20192;-79
2023/09/04 09:19:37;;;;;;;0.05;0.05;;;19.20;99.20;;;;;;5040372;28;20217;-78
2023/09/04 09:22:17;;;;;;;0.10;0.10;;;19.40;99.50;;;;;;5058524;28;20097;-80
2023/09/04 09:24:53;;;;;;;0.10;0.10;;;19.30;99.50;;;;;;5040160;28;20027;-78
2023/09/04 09:27:22;;;;;;;0.00;0.00;;;19.20;99.70;;;;;;5040163;28;20045;-78
2023/09/04 09:29:48;;;;;;;0.10;0.10;;;19.30;99.60;;;;;;5040287;28;20032;-78
2023/09/04 09:32:19;;;;;;;0.10;0.10;;;19.50;99.70;;;;;;5058109;28;20024;-78
2023/09/04 09:34:52;;;;;;;0.10;0.10;;;19.50;99.50;;;;;;5058106;28;20509;-82
2023/09/04 09:37:20;;;;;;;0.00;0.00;;;19.60;99.30;;;;;;5057876;28;20020;-79
2023/09/04 09:39:46;;;;;;;0.00;0.00;;;18.80;99.10;;;;;;5040381;28;20035;-79
2023/09/04 09:42:12;;;;;;;0.20;0.20;;;19.60;99.70;;;;;;5058169;28;20028;-78
2023/09/04 09:44:38;;;;;;;0.32;0.30;;;19.60;99.40;;;;;;5040192;28;20025;-78
2023/09/04 09:47:07;;;;;;;0.32;0.32;;;19.50;99.80;;;;;;5073600;28;20066;-78
2023/09/04 09:49:36;;;;;;;0.52;0.52;;;19.40;99.90;;;;;;5058160;28;20029;-80
2023/09/04 09:52:02;;;;;;;0.10;0.10;;;19.20;99.90;;;;;;5058042;28;20023;-78
2023/09/04 09:54:44;;;;;;;0.00;0.00;;;19.10;99.90;;;;;;5039826;28;20263;-78
2023/09/04 09:57:12;;;;;;;0.08;0.08;;;19.00;99.90;;;;;;5058385;28;20419;-77
2023/09/04 09:59:43;;;;;;;0.30;0.30;;;19.10;99.90;;;;;;5058613;28;20031;-75
2023/09/04 10:02:17;;;;;;;0.10;0.10;;;19.20;99.80;;;;;;5058470;28;20386;-75
2023/09/04 10:04:44;;;;;;;0.00;0.00;;;19.20;99.50;;;;;;5039644;28;20522;-76
2023/09/04 10:07:12;;;;;;;0.10;0.10;;;19.20;99.40;;;;;;5057826;28;20301;-76
2023/09/04 10:09:48;;;;;;;0.10;0.10;;;19.10;99.30;;;;;;5056958;28;20471;-76
2023/09/04 10:12:41;;;;;;;0.10;0.10;;;19.10;99.90;;;;;;5040726;28;20031;-77
2023/09/04 10:15:13;;;;;;;0.60;0.32;;;16.60;99.50;;;;;;5057518;28;20026;-77
2023/09/04 10:18:06;;;;;;;2.47;2.38;;;18.90;99.90;;;;;;5057381;28;20036;-77
2023/09/04 10:20:35;;;;;;;1.95;1.77;;;17.50;99.90;;;;;;5057113;28;20107;-77
2023/09/04 10:23:07;;;;;;;0.00;0.00;;;18.80;99.90;;;;;;5057777;28;20513;-76
2023/09/04 10:26:06;;;;;;;0.00;0.00;;;18.60;99.90;;;;;;5039626;28;20310;-76
2023/09/04 10:28:36;;;;;;;0.05;0.05;;;18.50;99.90;;;;;;5057787;28;20044;-75
2023/09/04 10:31:05;;;;;;;13.82;3.20;;;18.40;99.90;;;;;;5060123;28;20037;-76
2023/09/04 10:33:32;;;;;;;0.10;0.10;;;18.40;99.90;;;;;;5060233;28;20655;-76
2023/09/04 10:36:00;;;;;;;0.00;0.00;;;18.30;99.90;;;;;;5061265;28;20563;-76
2023/09/04 10:38:27;;;;;;;0.10;0.10;;;18.30;99.90;;;;;;5042080;28;20131;-76
2023/09/04 10:40:54;;;;;;;0.05;0.05;;;18.60;99.90;;;;;;5059849;28;20020;-76
2023/09/04 10:43:20;;;;;;;0.15;0.15;;;;;;;;;;5041096;28;20028;-78
2023/09/04 10:46:07;;;;;;;0.10;0.10;;;18.50;99.90;;;;;;5058590;28;20020;-79
2023/09/04 10:48:40;;;;;;;0.08;0.08;;;19.00;99.90;;;;;;5038932;28;20044;-77
2023/09/04 10:51:38;;;;;;;0.00;0.00;;;18.70;99.90;;;;;;5039734;28;20587;-77
2023/09/04 10:54:24;;;;;;;0.10;0.10;;;18.80;99.90;;;;;;5057441;28;20301;-77
2023/09/04 10:57:07;;;;;;;0.00;0.00;;;18.90;99.90;;;;;;5056985;28;20025;-77
2023/09/04 10:59:52;;;;;;;0.13;0.13;;;19.00;99.90;;;;;;5038412;28;20016;-77
2023/09/04 11:02:44;;;;;;;0.00;0.00;;;19.00;99.90;;;;;;5056681;28;20082;-77
2023/09/04 11:05:13;;;;;;;0.10;0.10;;;19.00;99.90;;;;;;5035269;28;20135;-77
2023/09/04 11:07:39;;;;;;;0.10;0.10;;;19.10;99.90;;;;;;5072116;28;20021;-76
2023/09/04 11:10:13;;;;;;;0.47;0.47;;;19.10;99.90;;;;;;5038910;28;20024;-76
2023/09/04 11:12:42;;;;;;;0.00;0.00;;;19.10;99.90;;;;;;5040875;28;20517;-78
2023/09/04 11:15:15;;;;;;;0.10;0.10;;;19.10;99.90;;;;;;5042826;28;20225;-76
2023/09/04 11:17:44;;;;;;;;;;;19.10;99.90;;;;;;5061223;28;20509;-77
2023/09/04 11:20:14;;;;;;;0.00;0.00;;;19.10;99.90;;;;;;5060716;28;20093;-77
2023/09/04 11:22:47;;;;;;;2.03;1.90;;;19.00;99.90;;;;;;5060743;28;20016;-78
2023/09/04 11:25:13;;;;;;;0.00;0.00;;;19.00;99.90;;;;;;5060754;28;20032;-77
2023/09/04 11:27:38;;;;;;;0.13;0.13;;;19.00;99.90;;;;;;5060791;28;20141;-76
2023/09/04 11:30:05;;;;;;;1.05;0.95;;;19.00;99.90;;;;;;5060844;28;20359;-77
2023/09/04 11:32:36;;;;;;;0.20;0.20;;;19.00;99.90;;;;;;5060552;28;20036;-76
2023/09/04 11:35:02;;;;;;;2.53;2.30;;;22.10;99.90;;;;;;5042338;28;20032;-76
2023/09/04 11:37:32;;;;;;;0.55;0.55;;;19.00;99.90;;;;;;5042375;28;20029;-80
2023/09/04 11:40:01;;;;;;;0.13;0.13;;;19.00;99.90;;;;;;5042391;28;20021;-77
2023/09/04 11:42:27;;;;;;;0.40;0.40;;;19.00;99.90;;;;;;5060495;28;20028;-77
2023/09/04 11:44:54;;;;;;;3.83;3.28;;;19.10;99.90;;;;;;5076204;28;20031;-78
2023/09/04 11:47:22;;;;;;;2.58;2.40;;;19.20;99.90;;;;;;5060297;28;20326;-76
2023/09/04 11:49:48;;;;;;;0.20;0.20;;;19.20;99.90;;;;;;5042150;28;20374;-77
2023/09/04 11:52:16;;;;;;;0.00;0.00;;;19.30;99.90;;;;;;5042431;28;20028;-81
2023/09/04 11:54:43;;;;;;;0.20;0.20;;;19.50;99.90;;;;;;5042713;28;20024;-77
2023/09/04 11:57:10;;;;;;;0.38;0.32;;;20.50;99.90;;;;;;5042553;28;20214;-76
2023/09/04 11:59:37;;;;;;;0.10;0.10;;;19.40;99.90;;;;;;5042154;28;20314;-76
2023/09/04 12:02:04;;;;;;;0.10;0.10;;;19.00;99.90;;;;;;5041937;28;20028;-76
2023/09/04 12:04:34;;;;;;;0.10;0.10;;;19.40;99.90;;;;;;5041998;28;20028;-76
2023/09/04 12:07:04;;;;;;;0.10;0.10;;;19.50;99.90;;;;;;5060087;28;20033;-77
2023/09/04 12:09:30;;;;;;;8.23;7.63;;;19.60;99.90;;;;;;5060127;28;20032;-77
2023/09/04 12:11:56;;;;;;;0.38;0.30;;;19.70;99.90;;;;;;5041981;28;20591;-77
2023/09/04 12:14:22;;;;;;;0.10;0.10;;;19.70;99.90;;;;;;5059941;28;20035;-77
2023/09/04 12:16:48;;;;;;;0.00;0.00;;;19.60;99.90;;;;;;5059771;28;20024;-77
2023/09/04 12:19:16;;;;;;;0.00;0.00;;;19.50;99.90;;;;;;5059587;28;20040;-76
2023/09/04 12:21:42;;;;;;;0.10;0.10;;;19.50;99.90;;;;;;5041718;28;20032;-76
2023/09/04 12:24:14;;;;;;;0.00;0.00;;;19.40;99.90;;;;;;5040249;28;20436;-75
2023/09/04 12:26:42;;;;;;;0.15;0.15;;;19.30;99.90;;;;;;5041515;28;20244;-75
2023/09/04 12:29:09;;;;;;;0.00;0.00;;;19.30;99.90;;;;;;5041223;28;20477;-76
2023/09/04 12:31:36;;;;;;;0.00;0.00;;;19.30;99.90;;;;;;5059370;28;20254;-78
2023/09/04 12:34:02;;;;;;;0.10;0.10;;;19.20;99.90;;;;;;5041488;28;20032;-77
2023/09/04 12:36:32;;;;;;;0.75;0.75;;;19.20;99.90;;;;;;5059463;28;20265;-77
2023/09/04 12:38:58;;;;;;;0.22;0.22;;;19.20;99.90;;;;;;5041437;28;20202;-77
2023/09/04 12:41:24;;;;;;;0.00;0.00;;;19.20;99.90;;;;;;5059915;28;20056;-77
2023/09/04 12:43:50;;;;;;;0.10;0.10;;;19.10;99.90;;;;;;5059464;28;20028;-76
2023/09/04 12:46:15;;;;;;;0.10;0.10;;;19.00;99.90;;;;;;5059155;28;20052;-77
2023/09/04 12:48:42;;;;;;;0.35;0.35;;;19.00;99.90;;;;;;5059073;28;20225;-76
2023/09/04 12:51:08;;;;;;;0.10;0.10;;;19.10;99.90;;;;;;5059122;28;20013;-77
2023/09/04 12:53:37;;;;;;;0.10;0.10;;;19.00;99.90;;;;;;5040970;28;20679;-76